createdAt,value
2016-07-23T00:00:28.865Z,1014.03
2016-07-23T00:01:28.860Z,1014.03
2016-07-23T00:02:28.857Z,1014.07
2016-07-23T00:03:28.855Z,1014.05
2016-07-23T00:04:28.854Z,1014.03
2016-07-23T00:05:28.853Z,1013.98
2016-07-23T00:06:28.850Z,1014.01
2016-07-23T00:07:28.848Z,1014
2016-07-23T00:08:28.849Z,1014.03
2016-07-23T00:09:28.846Z,1014.03
2016-07-23T00:10:28.844Z,1014.04
2016-07-23T00:11:28.841Z,1014.01
2016-07-23T00:12:28.839Z,1013.99
2016-07-23T00:13:28.839Z,1014.02
2016-07-23T00:14:28.838Z,1014.05
2016-07-23T00:15:28.835Z,1014.01
2016-07-23T00:16:28.833Z,1014.01
2016-07-23T00:17:28.832Z,1014.02
2016-07-23T00:18:28.830Z,1014.01
2016-07-23T00:19:28.828Z,1014.04
2016-07-23T00:20:28.825Z,1014.03
2016-07-23T00:21:28.826Z,1014.03
2016-07-23T00:22:28.822Z,1014.01
2016-07-23T00:23:28.822Z,1014.01
2016-07-23T00:24:28.818Z,1014.02
2016-07-23T00:25:28.818Z,1014.04
2016-07-23T00:26:28.815Z,1013.99
2016-07-23T00:27:28.816Z,1013.98
2016-07-23T00:28:28.812Z,1014
2016-07-23T00:29:28.810Z,1014.01
2016-07-23T00:30:28.810Z,1013.98
2016-07-23T00:31:28.808Z,1014.01
2016-07-23T00:32:28.805Z,1014
2016-07-23T00:33:28.805Z,1013.96
2016-07-23T00:34:28.803Z,1013.97
2016-07-23T00:35:28.802Z,1013.97
2016-07-23T00:36:28.798Z,1013.96
2016-07-23T00:37:28.796Z,1014.01
2016-07-23T00:38:28.795Z,1013.98
2016-07-23T00:39:28.793Z,1013.98
2016-07-23T00:40:28.791Z,1013.97
2016-07-23T00:41:28.789Z,1013.97
2016-07-23T00:42:28.787Z,1014
2016-07-23T00:43:28.788Z,1014.03
2016-07-23T00:44:30.013Z,1014.02
2016-07-23T00:45:28.783Z,1014.04
2016-07-23T00:46:28.783Z,1014.05
2016-07-23T00:47:28.779Z,1014.07
2016-07-23T00:48:28.779Z,1014.11
2016-07-23T00:49:28.776Z,1014.12
2016-07-23T00:50:28.773Z,1014.1
2016-07-23T00:51:28.773Z,1014.15
2016-07-23T00:52:28.772Z,1014.16
2016-07-23T00:53:28.769Z,1014.16
2016-07-23T00:54:29.215Z,1014.13
2016-07-23T00:55:28.764Z,1014.12
2016-07-23T00:56:28.763Z,1014.15
2016-07-23T00:57:28.761Z,1014.12
2016-07-23T00:58:28.759Z,1014.1
2016-07-23T00:59:28.757Z,1014.09
2016-07-23T01:00:28.758Z,1014.07
2016-07-23T01:01:28.754Z,1014.1
2016-07-23T01:02:28.753Z,1014.1
2016-07-23T01:03:28.751Z,1014.11
2016-07-23T01:04:28.748Z,1014.11
2016-07-23T01:05:28.746Z,1014.09
2016-07-23T01:06:28.744Z,1014.08
2016-07-23T01:07:28.744Z,1014.05
2016-07-23T01:08:28.747Z,1014.04
2016-07-23T01:09:29.141Z,1014.07
2016-07-23T01:10:28.740Z,1014.01
2016-07-23T01:11:28.737Z,1014.04
2016-07-23T01:12:29.134Z,1014.01
2016-07-23T01:13:28.734Z,1013.99
2016-07-23T01:14:28.729Z,1013.99
2016-07-23T01:15:28.726Z,1013.97
2016-07-23T01:16:28.726Z,1013.97
2016-07-23T01:17:28.724Z,1013.93
2016-07-23T01:18:28.724Z,1013.93
2016-07-23T01:19:28.719Z,1013.93
2016-07-23T01:20:28.720Z,1013.98
2016-07-23T01:21:28.718Z,1013.91
2016-07-23T01:22:28.814Z,1013.96
2016-07-23T01:23:28.711Z,1013.96
2016-07-23T01:24:28.709Z,1013.99
2016-07-23T01:25:28.709Z,1013.97
2016-07-23T01:26:28.706Z,1014.02
2016-07-23T01:27:28.703Z,1014
2016-07-23T01:28:28.700Z,1013.96
2016-07-23T01:29:28.699Z,1013.97
2016-07-23T01:30:28.698Z,1013.98
2016-07-23T01:31:28.696Z,1013.99
2016-07-23T01:32:28.694Z,1013.93
2016-07-23T01:33:28.692Z,1013.96
2016-07-23T01:34:28.691Z,1013.97
2016-07-23T01:35:28.688Z,1013.97
2016-07-23T01:36:28.684Z,1013.93
2016-07-23T01:37:28.683Z,1013.95
2016-07-23T01:38:28.679Z,1013.92
2016-07-23T01:39:29.083Z,1013.89
2016-07-23T01:40:28.676Z,1013.91
2016-07-23T01:41:28.673Z,1013.9
2016-07-23T01:42:28.670Z,1013.86
2016-07-23T01:43:28.668Z,1013.89
2016-07-23T01:44:28.665Z,1013.86
2016-07-23T01:45:28.666Z,1013.85
2016-07-23T01:46:28.663Z,1013.85
2016-07-23T01:47:28.660Z,1013.84
2016-07-23T01:48:28.657Z,1013.87
2016-07-23T01:49:28.655Z,1013.85
2016-07-23T01:50:28.655Z,1013.84
2016-07-23T01:51:28.652Z,1013.86
2016-07-23T01:52:28.649Z,1013.84
2016-07-23T01:53:28.647Z,1013.82
2016-07-23T01:54:28.644Z,1013.8
2016-07-23T01:55:28.643Z,1013.82
2016-07-23T01:56:28.638Z,1013.82
2016-07-23T01:57:28.639Z,1013.81
2016-07-23T01:58:28.635Z,1013.78
2016-07-23T01:59:28.631Z,1013.8
2016-07-23T02:00:28.630Z,1013.77
2016-07-23T02:01:28.708Z,1013.76
2016-07-23T02:02:28.665Z,1013.77
2016-07-23T02:03:28.624Z,1013.76
2016-07-23T02:04:28.621Z,1013.77
2016-07-23T02:05:28.622Z,1013.74
2016-07-23T02:06:28.614Z,1013.76
2016-07-23T02:07:28.845Z,1013.75
2016-07-23T02:08:28.612Z,1013.73
2016-07-23T02:09:28.609Z,1013.73
2016-07-23T02:10:28.607Z,1013.73
2016-07-23T02:11:28.605Z,1013.72
2016-07-23T02:12:29.027Z,1013.73
2016-07-23T02:13:28.603Z,1013.73
2016-07-23T02:14:28.599Z,1013.74
2016-07-23T02:15:28.597Z,1013.75
2016-07-23T02:16:28.594Z,1013.71
2016-07-23T02:17:28.591Z,1013.73
2016-07-23T02:18:28.589Z,1013.74
2016-07-23T02:19:28.584Z,1013.69
2016-07-23T02:20:28.583Z,1013.72
2016-07-23T02:21:28.578Z,1013.71
2016-07-23T02:22:28.578Z,1013.71
2016-07-23T02:23:28.575Z,1013.73
2016-07-23T02:24:28.572Z,1013.71
2016-07-23T02:25:28.571Z,1013.72
2016-07-23T02:26:28.566Z,1013.74
2016-07-23T02:27:28.817Z,1013.74
2016-07-23T02:28:28.560Z,1013.72
2016-07-23T02:29:29.010Z,1013.71
2016-07-23T02:30:28.556Z,1013.78
2016-07-23T02:31:28.556Z,1013.73
2016-07-23T02:32:28.551Z,1013.75
2016-07-23T02:33:28.550Z,1013.78
2016-07-23T02:34:28.549Z,1013.75
2016-07-23T02:36:28.542Z,1013.78
2016-07-23T02:37:28.539Z,1013.73
2016-07-23T02:38:28.739Z,1013.78
2016-07-23T02:39:28.536Z,1013.77
2016-07-23T02:40:28.532Z,1013.77
2016-07-23T02:41:28.529Z,1013.72
2016-07-23T02:42:28.527Z,1013.74
2016-07-23T02:43:28.523Z,1013.75
2016-07-23T02:44:28.527Z,1013.75
2016-07-23T02:45:28.520Z,1013.74
2016-07-23T02:46:28.515Z,1013.73
2016-07-23T02:47:29.119Z,1013.74
2016-07-23T02:48:28.513Z,1013.74
2016-07-23T02:49:29.723Z,1013.78
2016-07-23T02:50:28.506Z,1013.82
2016-07-23T02:51:28.503Z,1013.84
2016-07-23T02:52:28.501Z,1013.87
2016-07-23T02:53:28.496Z,1013.85
2016-07-23T02:54:28.496Z,1013.82
2016-07-23T02:55:28.490Z,1013.81
2016-07-23T02:56:28.490Z,1013.82
2016-07-23T02:57:28.485Z,1013.81
2016-07-23T02:58:28.486Z,1013.8
2016-07-23T02:59:28.482Z,1013.8
2016-07-23T03:00:28.480Z,1013.82
2016-07-23T03:01:28.474Z,1013.82
2016-07-23T03:02:28.472Z,1013.83
2016-07-23T03:03:28.471Z,1013.83
2016-07-23T03:04:28.468Z,1013.8
2016-07-23T03:05:28.466Z,1013.84
2016-07-23T03:06:28.460Z,1013.85
2016-07-23T03:07:28.458Z,1013.84
2016-07-23T03:08:28.457Z,1013.85
2016-07-23T03:09:28.452Z,1013.88
2016-07-23T03:10:28.452Z,1013.84
2016-07-23T03:11:28.448Z,1013.85
2016-07-23T03:12:28.444Z,1013.86
2016-07-23T03:13:28.442Z,1013.87
2016-07-23T03:14:28.439Z,1013.87
2016-07-23T03:15:28.438Z,1013.85
2016-07-23T03:16:28.432Z,1013.84
2016-07-23T03:17:28.432Z,1013.83
2016-07-23T03:18:28.426Z,1013.87
2016-07-23T03:19:28.426Z,1013.86
2016-07-23T03:20:28.423Z,1013.83
2016-07-23T03:21:29.686Z,1013.83
2016-07-23T03:22:28.800Z,1013.84
2016-07-23T03:23:28.413Z,1013.84
2016-07-23T03:24:28.412Z,1013.87
2016-07-23T03:25:28.408Z,1013.87
2016-07-23T03:26:28.406Z,1013.87
2016-07-23T03:27:28.401Z,1013.9
2016-07-23T03:28:29.015Z,1013.89
2016-07-23T03:29:29.930Z,1013.87
2016-07-23T03:30:28.394Z,1013.88
2016-07-23T03:31:28.390Z,1013.85
2016-07-23T03:32:29.296Z,1013.83
2016-07-23T03:33:28.386Z,1013.78
2016-07-23T03:34:28.382Z,1013.76
2016-07-23T03:35:28.670Z,1013.77
2016-07-23T03:36:28.375Z,1013.78
2016-07-23T03:37:28.376Z,1013.78
2016-07-23T03:38:28.370Z,1013.81
2016-07-23T03:39:28.369Z,1013.81
2016-07-23T03:40:28.365Z,1013.85
2016-07-23T03:41:28.362Z,1013.82
2016-07-23T03:42:28.360Z,1013.86
2016-07-23T03:43:28.356Z,1013.83
2016-07-23T03:44:29.454Z,1013.84
2016-07-23T03:45:28.352Z,1013.85
2016-07-23T03:46:28.347Z,1013.83
2016-07-23T03:47:28.347Z,1013.85
2016-07-23T03:48:28.342Z,1013.84
2016-07-23T03:49:28.590Z,1013.9
2016-07-23T03:50:28.338Z,1013.88
2016-07-23T03:51:28.334Z,1013.94
2016-07-23T03:52:28.332Z,1013.94
2016-07-23T03:53:28.328Z,1013.97
2016-07-23T03:54:28.327Z,1013.92
2016-07-23T03:55:28.325Z,1013.95
2016-07-23T03:56:28.320Z,1014
2016-07-23T03:57:28.368Z,1014
2016-07-23T03:58:28.327Z,1014.04
2016-07-23T03:59:28.315Z,1014.01
2016-07-23T04:00:28.310Z,1014.07
2016-07-23T04:01:28.309Z,1014.1
2016-07-23T04:02:28.307Z,1014.06
2016-07-23T04:03:28.306Z,1014.08
2016-07-23T04:04:28.305Z,1014.08
2016-07-23T04:05:28.303Z,1014.06
2016-07-23T04:06:28.301Z,1014.04
2016-07-23T04:07:28.301Z,1014.04
2016-07-23T04:08:28.298Z,1014.07
2016-07-23T04:09:28.300Z,1014.06
2016-07-23T04:10:28.301Z,1014.07
2016-07-23T04:11:28.296Z,1014.08
2016-07-23T04:12:28.296Z,1014.1
2016-07-23T04:13:28.296Z,1014.06
2016-07-23T04:14:28.295Z,1014.07
2016-07-23T04:15:28.295Z,1014.13
2016-07-23T04:16:28.295Z,1014.14
2016-07-23T04:17:28.297Z,1014.11
2016-07-23T04:18:28.295Z,1014.16
2016-07-23T04:19:28.296Z,1014.15
2016-07-23T04:20:28.298Z,1014.15
2016-07-23T04:21:28.298Z,1014.22
2016-07-23T04:22:28.301Z,1014.17
2016-07-23T04:23:28.300Z,1014.24
2016-07-23T04:24:28.303Z,1014.21
2016-07-23T04:25:28.304Z,1014.22
2016-07-23T04:26:28.308Z,1014.21
2016-07-23T04:27:28.311Z,1014.19
2016-07-23T04:28:28.311Z,1014.26
2016-07-23T04:29:28.313Z,1014.26
2016-07-23T04:30:28.415Z,1014.24
2016-07-23T04:31:28.322Z,1014.29
2016-07-23T04:32:28.322Z,1014.23
2016-07-23T04:33:28.325Z,1014.28
2016-07-23T04:34:28.332Z,1014.25
2016-07-23T04:35:28.336Z,1014.29
2016-07-23T04:36:28.339Z,1014.24
2016-07-23T04:37:28.818Z,1014.25
2016-07-23T04:38:28.348Z,1014.3
2016-07-23T04:39:28.811Z,1014.29
2016-07-23T04:40:28.896Z,1014.33
2016-07-23T04:41:28.359Z,1014.37
2016-07-23T04:42:29.097Z,1014.38
2016-07-23T04:43:28.370Z,1014.4
2016-07-23T04:44:28.377Z,1014.42
2016-07-23T04:45:28.380Z,1014.38
2016-07-23T04:46:28.386Z,1014.41
2016-07-23T04:47:28.391Z,1014.43
2016-07-23T04:48:28.398Z,1014.46
2016-07-23T04:49:28.406Z,1014.45
2016-07-23T04:50:28.412Z,1014.46
2016-07-23T04:51:29.071Z,1014.47
2016-07-23T04:52:28.423Z,1014.5
2016-07-23T04:53:28.432Z,1014.49
2016-07-23T04:54:28.437Z,1014.5
2016-07-23T04:55:28.444Z,1014.5
2016-07-23T04:56:28.452Z,1014.46
2016-07-23T04:57:28.459Z,1014.53
2016-07-23T04:58:28.464Z,1014.53
2016-07-23T04:59:28.472Z,1014.58
2016-07-23T05:00:28.478Z,1014.53
2016-07-23T05:02:28.493Z,1014.57
2016-07-23T05:03:28.504Z,1014.57
2016-07-23T05:04:28.513Z,1014.57
2016-07-23T05:05:28.517Z,1014.59
2016-07-23T05:06:28.526Z,1014.57
2016-07-23T05:07:28.536Z,1014.61
2016-07-23T05:08:28.545Z,1014.56
2016-07-23T05:09:28.701Z,1014.58
2016-07-23T05:10:28.560Z,1014.57
2016-07-23T05:11:28.568Z,1014.6
2016-07-23T05:12:28.579Z,1014.65
2016-07-23T05:13:28.584Z,1014.58
2016-07-23T05:14:28.594Z,1014.64
2016-07-23T05:15:28.603Z,1014.62
2016-07-23T05:16:28.611Z,1014.55
2016-07-23T05:17:28.623Z,1014.59
2016-07-23T05:18:28.630Z,1014.61
2016-07-23T05:19:28.641Z,1014.58
2016-07-23T05:20:28.651Z,1014.59
2016-07-23T05:21:28.659Z,1014.58
2016-07-23T05:22:28.671Z,1014.63
2016-07-23T05:23:28.681Z,1014.6
2016-07-23T05:24:28.690Z,1014.62
2016-07-23T05:25:28.699Z,1014.61
2016-07-23T05:26:28.712Z,1014.57
2016-07-23T05:27:28.719Z,1014.56
2016-07-23T05:28:28.732Z,1014.59
2016-07-23T05:29:28.744Z,1014.57
2016-07-23T05:30:28.754Z,1014.58
2016-07-23T05:31:28.761Z,1014.55
2016-07-23T05:32:28.772Z,1014.51
2016-07-23T05:33:28.783Z,1014.53
2016-07-23T05:34:28.797Z,1014.54
2016-07-23T05:35:28.805Z,1014.55
2016-07-23T05:36:28.818Z,1014.53
2016-07-23T05:37:28.829Z,1014.53
2016-07-23T05:38:28.840Z,1014.54
2016-07-23T05:39:28.851Z,1014.55
2016-07-23T05:40:28.863Z,1014.58
2016-07-23T05:41:28.875Z,1014.58
2016-07-23T05:42:28.888Z,1014.56
2016-07-23T05:43:28.899Z,1014.54
2016-07-23T05:44:28.911Z,1014.59
2016-07-23T05:45:28.922Z,1014.56
2016-07-23T05:46:28.936Z,1014.56
2016-07-23T05:47:28.952Z,1014.58
2016-07-23T05:48:28.960Z,1014.54
2016-07-23T05:49:28.972Z,1014.55
2016-07-23T05:50:28.986Z,1014.56
2016-07-23T05:51:28.997Z,1014.58
2016-07-23T05:52:29.011Z,1014.61
2016-07-23T05:53:29.020Z,1014.59
2016-07-23T05:54:29.048Z,1014.6
2016-07-23T05:56:29.057Z,1014.63
2016-07-23T05:57:29.069Z,1014.6
2016-07-23T05:58:29.084Z,1014.65
2016-07-23T05:59:29.094Z,1014.66
2016-07-23T06:00:29.108Z,1014.67
2016-07-23T06:01:29.118Z,1014.76
2016-07-23T06:02:29.454Z,1014.71
2016-07-23T06:03:29.200Z,1014.72
2016-07-23T06:04:29.158Z,1014.76
2016-07-23T06:05:29.171Z,1014.76
2016-07-23T06:06:29.182Z,1014.78
2016-07-23T06:07:29.196Z,1014.81
2016-07-23T06:08:29.205Z,1014.82
2016-07-23T06:09:29.219Z,1014.82
2016-07-23T06:10:29.232Z,1014.86
2016-07-23T06:11:29.243Z,1014.85
2016-07-23T06:12:29.262Z,1014.89
2016-07-23T06:13:29.269Z,1014.9
2016-07-23T06:14:29.283Z,1014.92
2016-07-23T06:15:29.294Z,1014.89
2016-07-23T06:16:29.309Z,1014.93
2016-07-23T06:17:29.323Z,1014.95
2016-07-23T06:18:29.336Z,1014.97
2016-07-23T06:19:29.351Z,1014.95
2016-07-23T06:20:30.613Z,1014.98
2016-07-23T06:21:29.376Z,1015.01
2016-07-23T06:22:29.388Z,1014.98
2016-07-23T06:23:29.402Z,1015
2016-07-23T06:24:29.418Z,1015.01
2016-07-23T06:25:29.430Z,1015.03
2016-07-23T06:26:29.443Z,1015.08
2016-07-23T06:27:29.458Z,1015.05
2016-07-23T06:28:29.474Z,1015.06
2016-07-23T06:29:29.487Z,1015.04
2016-07-23T06:30:29.701Z,1015.05
2016-07-23T06:31:29.515Z,1015.07
2016-07-23T06:32:29.529Z,1015.07
2016-07-23T06:33:29.544Z,1015.11
2016-07-23T06:34:29.561Z,1015.19
2016-07-23T06:35:29.575Z,1015.22
2016-07-23T06:36:29.591Z,1015.25
2016-07-23T06:37:29.607Z,1015.21
2016-07-23T06:38:29.622Z,1015.22
2016-07-23T06:39:29.638Z,1015.24
2016-07-23T06:40:29.651Z,1015.23
2016-07-23T06:41:29.667Z,1015.25
2016-07-23T06:42:29.686Z,1015.27
2016-07-23T06:43:29.701Z,1015.27
2016-07-23T06:44:29.714Z,1015.25
2016-07-23T06:45:29.733Z,1015.28
2016-07-23T06:46:29.748Z,1015.24
2016-07-23T06:47:29.765Z,1015.29
2016-07-23T06:48:29.779Z,1015.33
2016-07-23T06:49:29.795Z,1015.28
2016-07-23T06:50:29.812Z,1015.26
2016-07-23T06:51:29.827Z,1015.25
2016-07-23T06:52:29.844Z,1015.27
2016-07-23T06:53:29.861Z,1015.23
2016-07-23T06:54:29.880Z,1015.21
2016-07-23T06:55:29.894Z,1015.21
2016-07-23T06:56:29.913Z,1015.25
2016-07-23T06:57:29.929Z,1015.26
2016-07-23T06:58:29.944Z,1015.22
2016-07-23T06:59:29.962Z,1015.24
2016-07-23T07:00:29.977Z,1015.27
2016-07-23T07:01:29.994Z,1015.22
2016-07-23T07:02:30.010Z,1015.21
2016-07-23T07:03:30.026Z,1015.25
2016-07-23T07:04:30.043Z,1015.24
2016-07-23T07:05:30.058Z,1015.26
2016-07-23T07:06:30.074Z,1015.28
2016-07-23T07:07:30.088Z,1015.3
2016-07-23T07:08:30.104Z,1015.35
2016-07-23T07:09:30.120Z,1015.32
2016-07-23T07:10:30.132Z,1015.38
2016-07-23T07:11:30.151Z,1015.38
2016-07-23T07:12:30.162Z,1015.39
2016-07-23T07:13:30.180Z,1015.43
2016-07-23T07:15:30.207Z,1015.43
2016-07-23T07:16:30.219Z,1015.45
2016-07-23T07:17:30.235Z,1015.5
2016-07-23T07:18:30.247Z,1015.47
2016-07-23T07:19:30.261Z,1015.43
2016-07-23T07:20:30.276Z,1015.4
2016-07-23T07:21:30.293Z,1015.42
2016-07-23T07:22:30.313Z,1015.47
2016-07-23T07:23:30.316Z,1015.48
2016-07-23T07:24:30.330Z,1015.49
2016-07-23T07:25:30.346Z,1015.5
2016-07-23T07:26:31.342Z,1015.46
2016-07-23T07:27:30.371Z,1015.46
2016-07-23T07:28:30.385Z,1015.41
2016-07-23T07:29:30.398Z,1015.38
2016-07-23T07:30:30.513Z,1015.39
2016-07-23T07:31:30.424Z,1015.43
2016-07-23T07:32:30.440Z,1015.44
2016-07-23T07:33:30.452Z,1015.49
2016-07-23T07:34:30.467Z,1015.54
2016-07-23T07:35:30.477Z,1015.5
2016-07-23T07:36:30.490Z,1015.52
2016-07-23T07:37:30.503Z,1015.52
2016-07-23T07:38:30.516Z,1015.57
2016-07-23T07:39:30.536Z,1015.54
2016-07-23T07:40:30.544Z,1015.5
2016-07-23T07:41:30.554Z,1015.57
2016-07-23T07:42:30.567Z,1015.55
2016-07-23T07:43:30.682Z,1015.5
2016-07-23T07:44:30.593Z,1015.5
2016-07-23T07:45:30.605Z,1015.5
2016-07-23T07:46:30.616Z,1015.48
2016-07-23T07:47:31.180Z,1015.43
2016-07-23T07:48:30.642Z,1015.41
2016-07-23T07:49:30.806Z,1015.4
2016-07-23T07:51:30.677Z,1015.48
2016-07-23T07:53:30.700Z,1015.61
2016-07-23T07:54:30.713Z,1015.63
2016-07-23T07:55:30.724Z,1015.56
2016-07-23T07:56:30.737Z,1015.59
2016-07-23T07:57:30.750Z,1015.76
2016-07-23T07:58:30.761Z,1015.79
2016-07-23T07:59:30.774Z,1015.9
2016-07-23T08:00:30.785Z,1015.97
2016-07-23T08:01:30.797Z,1016.09
2016-07-23T08:02:30.807Z,1016.16
2016-07-23T08:03:30.820Z,1016.18
2016-07-23T08:04:30.833Z,1016.32
2016-07-23T08:05:30.846Z,1016.47
2016-07-23T08:06:30.859Z,1016.49
2016-07-23T08:07:30.870Z,1016.56
2016-07-23T08:08:30.897Z,1016.57
2016-07-23T08:09:30.896Z,1016.53
2016-07-23T08:10:30.912Z,1016.46
2016-07-23T08:11:30.924Z,1016.6
2016-07-23T08:12:30.937Z,1016.72
2016-07-23T08:13:30.954Z,1016.71
2016-07-23T08:14:30.967Z,1016.71
2016-07-23T08:15:30.980Z,1016.74
2016-07-23T08:16:30.997Z,1016.62
2016-07-23T08:17:31.012Z,1016.57
2016-07-23T08:18:31.025Z,1016.56
2016-07-23T08:19:31.042Z,1016.59
2016-07-23T08:20:31.056Z,1016.55
2016-07-23T08:21:31.072Z,1016.55
2016-07-23T08:22:31.088Z,1016.71
2016-07-23T08:23:31.103Z,1016.67
2016-07-23T08:24:31.122Z,1016.8
2016-07-23T08:25:31.137Z,1016.65
2016-07-23T08:26:31.154Z,1016.34
2016-07-23T08:27:31.172Z,1015.81
2016-07-23T08:28:31.188Z,1015.74
2016-07-23T08:29:31.206Z,1015.94
2016-07-23T08:30:31.324Z,1016.03
2016-07-23T08:31:31.240Z,1015.97
2016-07-23T08:32:31.256Z,1015.97
2016-07-23T08:33:31.714Z,1016.01
2016-07-23T08:34:31.289Z,1016
2016-07-23T08:35:31.306Z,1015.91
2016-07-23T08:36:31.324Z,1015.81
2016-07-23T08:37:31.340Z,1015.85
2016-07-23T08:38:31.831Z,1015.81
2016-07-23T08:39:31.373Z,1015.84
2016-07-23T08:40:31.389Z,1015.86
2016-07-23T08:41:32.771Z,1015.76
2016-07-23T08:42:31.423Z,1015.76
2016-07-23T08:43:31.441Z,1015.77
2016-07-23T08:44:31.459Z,1015.72
2016-07-23T08:45:31.472Z,1015.7
2016-07-23T08:46:31.492Z,1015.77
2016-07-23T08:47:31.508Z,1015.75
2016-07-23T08:48:31.521Z,1015.73
2016-07-23T08:49:31.541Z,1015.69
2016-07-23T08:50:31.555Z,1015.71
2016-07-23T08:51:31.572Z,1015.51
2016-07-23T08:52:31.589Z,1015.33
2016-07-23T08:53:31.606Z,1015.34
2016-07-23T08:54:31.619Z,1015.34
2016-07-23T08:55:31.636Z,1015.38
2016-07-23T08:56:32.301Z,1015.35
2016-07-23T08:57:31.667Z,1015.38
2016-07-23T08:58:32.635Z,1015.43
2016-07-23T09:00:31.713Z,1015.44
2016-07-23T09:01:31.728Z,1015.45
2016-07-23T09:02:31.739Z,1015.48
2016-07-23T09:03:31.753Z,1015.46
2016-07-23T09:04:31.768Z,1015.42
2016-07-23T09:05:31.779Z,1015.44
2016-07-23T09:06:32.794Z,1015.35
2016-07-23T09:07:31.803Z,1015.37
2016-07-23T09:08:32.468Z,1015.35
2016-07-23T09:09:31.834Z,1015.31
2016-07-23T09:10:31.840Z,1015.22
2016-07-23T09:11:31.850Z,1015.21
2016-07-23T09:12:31.861Z,1015.21
2016-07-23T09:13:31.875Z,1015.19
2016-07-23T09:14:31.884Z,1015.2
2016-07-23T09:15:31.896Z,1015.22
2016-07-23T09:16:31.905Z,1015.18
2016-07-23T09:17:31.915Z,1015.14
2016-07-23T09:18:31.928Z,1015.2
2016-07-23T09:19:31.936Z,1015.21
2016-07-23T09:20:31.947Z,1015.26
2016-07-23T09:21:31.957Z,1015.3
2016-07-23T09:22:31.967Z,1015.36
2016-07-23T09:23:31.978Z,1015.38
2016-07-23T09:24:31.986Z,1015.33
2016-07-23T09:25:31.999Z,1015.29
2016-07-23T09:26:32.006Z,1015.31
2016-07-23T09:27:32.016Z,1015.36
2016-07-23T09:28:32.023Z,1015.44
2016-07-23T09:29:32.035Z,1015.39
2016-07-23T09:30:32.043Z,1015.35
2016-07-23T09:31:32.051Z,1015.24
2016-07-23T09:32:32.062Z,1015.26
2016-07-23T09:33:32.070Z,1015.21
2016-07-23T09:34:32.081Z,1015.24
2016-07-23T09:35:32.091Z,1015.22
2016-07-23T09:36:32.096Z,1015.22
2016-07-23T09:37:32.106Z,1015.34
2016-07-23T09:38:32.115Z,1015.33
2016-07-23T09:39:32.123Z,1015.33
2016-07-23T09:40:32.337Z,1015.32
2016-07-23T09:41:32.143Z,1015.35
2016-07-23T09:42:32.152Z,1015.28
2016-07-23T09:43:32.159Z,1015.3
2016-07-23T09:44:32.170Z,1015.3
2016-07-23T09:45:32.178Z,1015.34
2016-07-23T09:46:32.189Z,1015.41
2016-07-23T09:47:32.196Z,1015.43
2016-07-23T09:48:32.203Z,1015.4
2016-07-23T09:49:32.214Z,1015.4
2016-07-23T09:51:32.228Z,1015.35
2016-07-23T09:52:32.237Z,1015.38
2016-07-23T09:53:32.246Z,1015.35
2016-07-23T09:54:32.256Z,1015.34
2016-07-23T09:55:32.264Z,1015.33
2016-07-23T09:56:32.272Z,1015.32
2016-07-23T09:57:32.280Z,1015.37
2016-07-23T09:58:32.291Z,1015.37
2016-07-23T09:59:32.298Z,1015.43
2016-07-23T10:00:33.705Z,1015.4
2016-07-23T10:01:32.545Z,1015.45
2016-07-23T10:02:33.286Z,1015.42
2016-07-23T10:03:32.330Z,1015.42
2016-07-23T10:04:32.339Z,1015.41
2016-07-23T10:05:32.349Z,1015.38
2016-07-23T10:06:32.357Z,1015.42
2016-07-23T10:07:32.473Z,1015.41
2016-07-23T10:08:32.377Z,1015.37
2016-07-23T10:09:32.381Z,1015.33
2016-07-23T10:10:32.391Z,1015.28
2016-07-23T10:11:32.399Z,1015.25
2016-07-23T10:12:32.406Z,1015.24
2016-07-23T10:13:32.415Z,1015.21
2016-07-23T10:14:32.429Z,1015.19
2016-07-23T10:15:32.835Z,1015.16
2016-07-23T10:16:32.491Z,1015.11
2016-07-23T10:18:32.461Z,1015.14
2016-07-23T10:19:32.470Z,1015.16
2016-07-23T10:20:32.478Z,1015.21
2016-07-23T10:21:32.489Z,1015.31
2016-07-23T10:22:32.494Z,1015.33
2016-07-23T10:23:32.502Z,1015.27
2016-07-23T10:24:32.520Z,1015.25
2016-07-23T10:25:32.521Z,1015.26
2016-07-23T10:26:32.980Z,1015.17
2016-07-23T10:27:32.543Z,1015.25
2016-07-23T10:28:32.549Z,1015.21
2016-07-23T10:29:32.910Z,1015.28
2016-07-23T10:30:32.616Z,1015.22
2016-07-23T10:31:32.577Z,1015.21
2016-07-23T10:32:32.587Z,1015.16
2016-07-23T10:33:32.594Z,1015.19
2016-07-23T10:34:32.604Z,1015.19
2016-07-23T10:35:32.615Z,1015.15
2016-07-23T10:36:32.623Z,1015.09
2016-07-23T10:37:32.631Z,1015.07
2016-07-23T10:38:32.641Z,1015.12
2016-07-23T10:39:32.647Z,1015.08
2016-07-23T10:40:32.658Z,1015.05
2016-07-23T10:41:32.666Z,1015.03
2016-07-23T10:42:32.677Z,1015.03
2016-07-23T10:43:32.684Z,1015.05
2016-07-23T10:44:32.695Z,1015.05
2016-07-23T10:45:32.701Z,1014.98
2016-07-23T10:46:32.712Z,1015
2016-07-23T10:47:32.719Z,1014.96
2016-07-23T10:48:32.730Z,1014.98
2016-07-23T10:49:32.739Z,1015.07
2016-07-23T10:50:32.748Z,1015.09
2016-07-23T10:51:32.760Z,1014.99
2016-07-23T10:52:32.764Z,1015.01
2016-07-23T10:53:32.773Z,1015
2016-07-23T10:54:32.782Z,1015.02
2016-07-23T10:55:32.792Z,1015.06
2016-07-23T10:56:32.810Z,1015.18
2016-07-23T10:57:32.808Z,1015.14
2016-07-23T10:58:32.819Z,1015.1
2016-07-23T10:59:32.828Z,1015.13
2016-07-23T11:00:32.837Z,1015
2016-07-23T11:01:32.846Z,1014.94
2016-07-23T11:02:32.854Z,1014.96
2016-07-23T11:03:32.863Z,1014.91
2016-07-23T11:04:32.872Z,1014.83
2016-07-23T11:05:32.880Z,1014.83
2016-07-23T11:06:32.891Z,1014.85
2016-07-23T11:07:32.900Z,1014.8
2016-07-23T11:08:32.908Z,1014.8
2016-07-23T11:09:34.421Z,1014.79
2016-07-23T11:10:33.759Z,1014.8
2016-07-23T11:11:32.934Z,1014.83
2016-07-23T11:12:32.945Z,1014.87
2016-07-23T11:13:32.955Z,1014.87
2016-07-23T11:14:33.242Z,1014.91
2016-07-23T11:15:32.972Z,1014.95
2016-07-23T11:16:32.981Z,1015.09
2016-07-23T11:17:32.990Z,1015.08
2016-07-23T11:18:33.000Z,1015.03
2016-07-23T11:19:33.009Z,1015.03
2016-07-23T11:20:33.727Z,1015.03
2016-07-23T11:21:33.026Z,1015.08
2016-07-23T11:22:33.034Z,1014.99
2016-07-23T11:23:33.619Z,1014.98
2016-07-23T11:24:33.053Z,1015
2016-07-23T11:25:33.061Z,1015
2016-07-23T11:26:33.070Z,1014.96
2016-07-23T11:27:33.078Z,1014.98
2016-07-23T11:28:33.089Z,1014.95
2016-07-23T11:29:33.095Z,1014.94
2016-07-23T11:30:33.104Z,1014.99
2016-07-23T11:31:33.114Z,1014.99
2016-07-23T11:32:33.122Z,1014.94
2016-07-23T11:33:33.130Z,1014.94
2016-07-23T11:34:33.140Z,1015
2016-07-23T11:36:33.156Z,1015.02
2016-07-23T11:37:33.216Z,1015.02
2016-07-23T11:38:33.174Z,1015.11
2016-07-23T11:39:33.183Z,1015.1
2016-07-23T11:40:33.192Z,1015.08
2016-07-23T11:41:33.202Z,1015.06
2016-07-23T11:42:33.212Z,1015.1
2016-07-23T11:43:33.220Z,1015.06
2016-07-23T11:44:33.780Z,1015.03
2016-07-23T11:45:33.237Z,1015.06
2016-07-23T11:46:33.799Z,1015.06
2016-07-23T11:47:33.256Z,1015.04
2016-07-23T11:48:33.263Z,1015.04
2016-07-23T11:49:33.275Z,1015.11
2016-07-23T11:50:33.283Z,1015.11
2016-07-23T11:51:33.290Z,1015.11
2016-07-23T11:52:33.301Z,1015.14
2016-07-23T11:53:33.308Z,1015.14
2016-07-23T11:54:33.317Z,1015.11
2016-07-23T11:55:33.328Z,1015.1
2016-07-23T11:56:33.338Z,1015.09
2016-07-23T11:57:33.345Z,1015.05
2016-07-23T11:58:33.354Z,1015.03
2016-07-23T11:59:33.361Z,1015.11
2016-07-23T12:00:33.374Z,1015.06
2016-07-23T12:01:33.383Z,1014.96
2016-07-23T12:02:33.391Z,1014.97
2016-07-23T12:03:33.398Z,1014.97
2016-07-23T12:04:33.410Z,1014.97
2016-07-23T12:05:33.419Z,1014.93
2016-07-23T12:06:33.428Z,1014.99
2016-07-23T12:07:33.436Z,1015.04
2016-07-23T12:08:33.444Z,1014.98
2016-07-23T12:09:33.455Z,1015
2016-07-23T12:10:33.461Z,1015
2016-07-23T12:11:33.473Z,1015.12
2016-07-23T12:12:33.482Z,1015.11
2016-07-23T12:13:33.488Z,1015.1
2016-07-23T12:14:33.499Z,1015.09
2016-07-23T12:15:33.509Z,1015.08
2016-07-23T12:16:33.516Z,1015.06
2016-07-23T12:17:33.526Z,1015.01
2016-07-23T12:18:33.533Z,1015.02